createdAt,value
2023-04-18T00:01:44.724Z,0.40
2023-04-18T00:03:18.344Z,0.30
2023-04-18T00:04:51.532Z,0.30
2023-04-18T00:06:26.261Z,0.30
2023-04-18T00:07:59.257Z,0.30
2023-04-18T00:09:32.364Z,0.30
2023-04-18T00:11:05.591Z,0.30
2023-04-18T00:12:38.718Z,0.40
2023-04-18T00:14:12.253Z,0.30
2023-04-18T00:15:46.710Z,0.30
2023-04-18T00:17:21.531Z,0.30
2023-04-18T00:18:55.459Z,0.30
2023-04-18T00:20:28.620Z,0.30
2023-04-18T00:22:01.922Z,0.30
2023-04-18T00:23:35.510Z,0.30
2023-04-18T00:25:10.340Z,0.30
2023-04-18T00:26:43.413Z,0.40
2023-04-18T00:28:16.527Z,0.30
2023-04-18T00:29:49.973Z,0.30
2023-04-18T00:31:22.976Z,0.30
2023-04-18T00:32:57.101Z,0.40
2023-04-18T00:34:30.781Z,0.30
2023-04-18T00:36:03.955Z,0.30
2023-04-18T00:37:37.583Z,0.30
2023-04-18T00:39:11.053Z,0.30
2023-04-18T00:40:43.991Z,0.30
2023-04-18T00:42:17.164Z,0.30
2023-04-18T00:43:51.806Z,0.32
2023-04-18T00:45:24.791Z,0.30
2023-04-18T00:46:57.975Z,0.30
2023-04-18T00:48:31.654Z,0.30
2023-04-18T00:50:05.881Z,0.30
2023-04-18T00:51:40.049Z,0.30
2023-04-18T00:53:13.859Z,0.30
2023-04-18T00:54:47.638Z,0.30
2023-04-18T00:56:20.669Z,0.30
2023-04-18T00:57:53.969Z,0.30
2023-04-18T00:59:27.180Z,0.30
2023-04-18T01:01:00.201Z,0.38
2023-04-18T01:02:34.271Z,0.30
2023-04-18T01:04:08.560Z,0.30
2023-04-18T01:05:41.652Z,0.30
2023-04-18T01:07:14.656Z,0.30
2023-04-18T01:08:47.597Z,0.30
2023-04-18T01:10:20.650Z,0.30
2023-04-18T01:11:55.858Z,0.32
2023-04-18T01:13:28.843Z,0.30
2023-04-18T01:15:01.842Z,0.30
2023-04-18T01:16:37.367Z,0.30
2023-04-18T01:18:11.279Z,0.30
2023-04-18T01:19:49.325Z,0.30
2023-04-18T01:21:22.575Z,0.40
2023-04-18T01:22:57.740Z,0.40
2023-04-18T01:24:32.288Z,0.30
2023-04-18T01:26:05.859Z,0.40
2023-04-18T01:27:38.806Z,0.40
2023-04-18T01:30:45.179Z,0.40
2023-04-18T01:32:20.466Z,0.30
2023-04-18T01:33:53.712Z,0.30
2023-04-18T01:35:26.939Z,0.20
2023-04-18T01:37:02.295Z,0.30
2023-04-18T01:38:35.176Z,0.38
2023-04-18T01:40:08.905Z,0.30
2023-04-18T01:41:44.145Z,0.30
2023-04-18T01:43:17.121Z,0.30
2023-04-18T01:44:50.037Z,0.30
2023-04-18T01:46:22.999Z,0.30
2023-04-18T01:47:56.277Z,0.30
2023-04-18T01:49:29.436Z,0.30
2023-04-18T01:51:02.416Z,0.30
2023-04-18T01:52:35.474Z,0.40
2023-04-18T01:54:08.550Z,0.30
2023-04-18T01:55:41.574Z,0.30
2023-04-18T01:57:14.479Z,0.30
2023-04-18T02:00:20.595Z,0.30
2023-04-18T02:01:53.730Z,0.20
2023-04-18T02:03:26.864Z,0.30
2023-04-18T02:04:59.936Z,0.30
2023-04-18T02:08:06.065Z,0.30
2023-04-18T02:09:38.951Z,0.30
2023-04-18T02:11:11.851Z,0.30
2023-04-18T02:14:17.735Z,0.30
2023-04-18T02:15:51.192Z,0.30
2023-04-18T02:17:24.676Z,0.30
2023-04-18T02:19:00.669Z,0.30
2023-04-18T02:22:07.809Z,0.30
2023-04-18T02:25:13.326Z,0.30
2023-04-18T02:28:19.161Z,0.30
2023-04-18T02:29:52.193Z,0.28
2023-04-18T02:31:25.361Z,0.20
2023-04-18T02:32:58.644Z,0.30
2023-04-18T02:34:33.491Z,0.20
2023-04-18T02:36:06.874Z,0.30
2023-04-18T02:37:41.486Z,0.20
2023-04-18T02:39:14.544Z,0.30
2023-04-18T02:40:48.349Z,0.30
2023-04-18T02:42:21.266Z,0.22
2023-04-18T02:43:55.575Z,0.20
2023-04-18T02:45:28.969Z,0.20
2023-04-18T02:47:04.562Z,0.20
2023-04-18T02:52:48.624Z,0.20
2023-04-18T02:54:24.949Z,0.20
2023-04-18T02:56:07.834Z,0.20
2023-04-18T02:57:59.452Z,0.20
2023-04-18T03:00:07.370Z,0.20
2023-04-18T03:01:59.026Z,0.10
2023-04-18T03:03:32.481Z,0.20
2023-04-18T03:05:28.586Z,0.20
2023-04-18T03:07:05.135Z,0.20
2023-04-18T03:08:42.326Z,0.20
2023-04-18T03:10:15.292Z,0.20
2023-04-18T03:11:48.256Z,0.20
2023-04-18T03:13:23.147Z,0.10
2023-04-18T03:14:57.016Z,0.20
2023-04-18T03:16:30.457Z,0.20
2023-04-18T03:18:03.589Z,0.20
2023-04-18T03:19:40.238Z,0.10
2023-04-18T03:21:16.690Z,0.20
2023-04-18T03:22:49.968Z,0.20
2023-04-18T03:24:26.841Z,0.10
2023-04-18T03:26:03.338Z,0.20
2023-04-18T03:27:38.650Z,0.10
2023-04-18T03:29:11.703Z,0.20
2023-04-18T03:30:46.623Z,0.20
2023-04-18T03:32:19.522Z,0.20
2023-04-18T03:35:27.100Z,0.10
2023-04-18T03:37:01.434Z,0.10
2023-04-18T03:38:36.497Z,0.10
2023-04-18T03:40:10.050Z,0.10
2023-04-18T03:41:43.002Z,0.10
2023-04-18T03:43:16.433Z,0.10
2023-04-18T03:44:49.310Z,0.10
2023-04-18T03:47:57.875Z,0.15
2023-04-18T03:49:31.524Z,0.20
2023-04-18T03:52:39.068Z,0.10
2023-04-18T03:54:12.883Z,0.10
2023-04-18T03:55:46.334Z,0.10
2023-04-18T03:57:22.451Z,0.10
2023-04-18T03:58:55.762Z,0.10
2023-04-18T04:00:29.598Z,0.10
2023-04-18T04:02:09.994Z,0.10
2023-04-18T04:03:43.087Z,0.10
2023-04-18T04:05:16.784Z,0.10
2023-04-18T04:06:50.062Z,0.10
2023-04-18T04:08:23.362Z,0.10
2023-04-18T04:09:56.566Z,0.10
2023-04-18T04:11:29.962Z,0.10
2023-04-18T04:13:03.704Z,0.10
2023-04-18T04:14:39.559Z,0.10
2023-04-18T04:16:12.993Z,0.10
2023-04-18T04:17:46.543Z,0.10
2023-04-18T04:19:20.153Z,0.03
2023-04-18T04:21:10.821Z,0.10
2023-04-18T04:22:57.268Z,0.00
2023-04-18T04:24:30.897Z,0.00
2023-04-18T04:26:04.763Z,0.10
2023-04-18T04:27:49.946Z,0.00
2023-04-18T04:29:24.230Z,0.00
2023-04-18T04:30:58.695Z,0.05
2023-04-18T04:32:33.180Z,0.00
2023-04-18T04:34:06.529Z,0.00
2023-04-18T04:35:39.636Z,0.08
2023-04-18T04:37:18.954Z,0.00
2023-04-18T04:39:17.762Z,0.10
2023-04-18T04:41:16.999Z,0.05
2023-04-18T04:42:54.198Z,0.05
2023-04-18T04:44:37.734Z,0.10
2023-04-18T04:46:14.001Z,0.03
2023-04-18T04:47:49.425Z,0.00
2023-04-18T04:49:22.499Z,0.10
2023-04-18T04:50:58.514Z,0.10
2023-04-18T04:52:33.019Z,0.08
2023-04-18T04:54:07.281Z,0.00
2023-04-18T04:55:40.804Z,0.00
2023-04-18T04:57:14.222Z,0.10
2023-04-18T04:58:47.673Z,0.00
2023-04-18T05:00:30.725Z,0.00
2023-04-18T05:02:03.790Z,0.00
2023-04-18T05:03:37.223Z,0.00
2023-04-18T05:05:11.095Z,0.00
2023-04-18T05:06:44.489Z,0.10
2023-04-18T05:08:17.418Z,0.00
2023-04-18T05:09:50.225Z,0.00
2023-04-18T05:12:56.127Z,0.00
2023-04-18T05:14:29.077Z,0.00
2023-04-18T05:16:01.992Z,0.00
2023-04-18T05:17:35.365Z,0.00
2023-04-18T05:19:08.809Z,0.00
2023-04-18T05:20:41.859Z,0.00
2023-04-18T05:22:14.771Z,0.00
2023-04-18T05:25:20.885Z,0.00
2023-04-18T05:26:54.163Z,0.00
2023-04-18T05:28:27.733Z,0.00
2023-04-18T05:30:00.624Z,0.00
2023-04-18T05:31:34.010Z,0.00
2023-04-18T05:33:07.211Z,0.00
2023-04-18T05:34:40.122Z,0.00
2023-04-18T05:36:13.049Z,0.00
2023-04-18T05:37:46.452Z,0.00
2023-04-18T05:39:19.540Z,0.00
2023-04-18T05:40:52.564Z,0.00
2023-04-18T05:42:25.813Z,0.00
2023-04-18T05:44:05.381Z,0.00
2023-04-18T05:45:38.861Z,0.00
2023-04-18T05:47:11.794Z,0.00
2023-04-18T05:48:44.701Z,0.00
2023-04-18T05:50:17.742Z,0.00
2023-04-18T05:51:50.911Z,0.00
2023-04-18T05:53:23.906Z,0.00
2023-04-18T05:54:56.840Z,0.00
2023-04-18T05:58:02.523Z,0.00
2023-04-18T06:01:09.339Z,0.00
2023-04-18T06:02:42.662Z,0.00
2023-04-18T06:04:16.828Z,0.00
2023-04-18T06:05:50.367Z,0.00
2023-04-18T06:07:25.328Z,0.00
2023-04-18T06:08:58.396Z,0.00
2023-04-18T06:10:31.277Z,0.00
2023-04-18T06:12:04.619Z,0.00
2023-04-18T06:13:37.857Z,0.00
2023-04-18T06:15:13.900Z,0.00
2023-04-18T06:16:47.224Z,0.00
2023-04-18T06:18:20.872Z,0.00
2023-04-18T06:19:54.149Z,0.00
2023-04-18T06:21:27.995Z,0.00
2023-04-18T06:23:00.893Z,0.00
2023-04-18T06:24:33.823Z,0.00
2023-04-18T06:26:07.949Z,0.00
2023-04-18T06:27:41.197Z,0.00
2023-04-18T06:29:14.115Z,0.00
2023-04-18T06:30:47.027Z,0.00
2023-04-18T06:32:19.989Z,0.00
2023-04-18T06:33:53.405Z,0.00
2023-04-18T06:35:26.785Z,0.00
2023-04-18T06:37:00.155Z,0.00
2023-04-18T06:38:33.973Z,0.00
2023-04-18T06:40:10.803Z,0.00
2023-04-18T06:41:43.695Z,0.00
2023-04-18T06:43:16.661Z,0.00
2023-04-18T06:44:51.232Z,0.00
2023-04-18T06:46:24.386Z,0.00
2023-04-18T06:47:59.900Z,0.00
2023-04-18T06:49:32.793Z,0.00
2023-04-18T06:51:05.755Z,0.00
2023-04-18T06:52:41.204Z,0.00
2023-04-18T06:54:14.460Z,0.00
2023-04-18T06:55:47.446Z,0.00
2023-04-18T06:57:20.565Z,0.00
2023-04-18T06:58:54.097Z,0.00
2023-04-18T07:00:27.473Z,0.10
2023-04-18T07:02:00.516Z,0.00
2023-04-18T07:03:33.696Z,0.00
2023-04-18T07:05:08.352Z,0.00
2023-04-18T07:06:43.156Z,0.00
2023-04-18T07:08:16.355Z,0.00
2023-04-18T07:09:50.260Z,0.03
2023-04-18T07:11:23.976Z,0.00
2023-04-18T07:12:56.850Z,0.00
2023-04-18T07:16:04.193Z,0.00
2023-04-18T07:19:10.599Z,0.00
2023-04-18T07:20:43.448Z,0.00
2023-04-18T07:22:16.837Z,0.10
2023-04-18T07:23:49.966Z,0.10
2023-04-18T07:25:24.425Z,0.00
2023-04-18T07:28:31.629Z,0.03
2023-04-18T07:30:05.439Z,0.10
2023-04-18T07:31:38.921Z,0.00
2023-04-18T07:33:12.131Z,0.08
2023-04-18T07:34:45.290Z,0.10
2023-04-18T07:36:18.787Z,0.00
2023-04-18T07:37:54.195Z,0.10
2023-04-18T07:39:27.282Z,0.10
2023-04-18T07:41:01.833Z,0.10
2023-04-18T07:42:34.922Z,0.00
2023-04-18T07:44:07.925Z,0.10
2023-04-18T07:45:43.436Z,0.00
2023-04-18T07:47:16.640Z,0.10
2023-04-18T07:48:50.225Z,0.10
2023-04-18T07:50:24.812Z,0.00
2023-04-18T07:51:58.032Z,0.10
2023-04-18T07:53:30.942Z,0.03
2023-04-18T07:56:37.284Z,0.10
2023-04-18T07:58:10.758Z,0.10
2023-04-18T07:59:43.845Z,0.00
2023-04-18T08:01:18.925Z,0.10
2023-04-18T08:02:51.851Z,0.00
2023-04-18T08:04:25.812Z,0.00
2023-04-18T08:06:02.752Z,0.00
2023-04-18T08:07:36.638Z,0.10
2023-04-18T08:09:09.772Z,0.00
2023-04-18T08:10:42.989Z,0.00
2023-04-18T08:12:15.862Z,0.10
2023-04-18T08:13:49.049Z,0.10
2023-04-18T08:15:21.978Z,0.00
2023-04-18T08:16:55.232Z,0.00
2023-04-18T08:18:28.360Z,0.10
2023-04-18T08:20:02.770Z,0.10
2023-04-18T08:21:35.959Z,0.10
2023-04-18T08:23:12.115Z,0.10
2023-04-18T08:25:01.146Z,0.00
2023-04-18T08:26:36.614Z,0.10
2023-04-18T08:28:09.989Z,0.08
2023-04-18T08:29:43.039Z,0.08
2023-04-18T08:31:16.617Z,0.00
2023-04-18T08:32:50.439Z,0.10
2023-04-18T08:34:24.384Z,0.10
2023-04-18T08:37:30.464Z,0.00
2023-04-18T08:39:04.262Z,0.00
2023-04-18T08:40:38.706Z,0.10
2023-04-18T08:42:16.598Z,0.00
2023-04-18T08:43:50.394Z,0.00
2023-04-18T08:45:24.638Z,0.00
2023-04-18T08:46:58.072Z,0.00
2023-04-18T08:48:30.974Z,0.00
2023-04-18T08:50:04.338Z,0.00
2023-04-18T08:51:40.708Z,0.00
2023-04-18T08:53:14.244Z,0.00
2023-04-18T08:54:47.686Z,0.10
2023-04-18T08:56:26.307Z,0.10
2023-04-18T08:58:00.174Z,0.00
2023-04-18T08:59:35.850Z,0.10
2023-04-18T09:01:09.176Z,0.00
2023-04-18T09:02:43.123Z,0.00
2023-04-18T09:04:41.423Z,0.10
2023-04-18T09:06:19.500Z,0.00
2023-04-18T09:07:56.899Z,0.00
2023-04-18T09:09:50.599Z,0.10
2023-04-18T09:11:29.649Z,0.00
2023-04-18T09:13:04.704Z,0.00
2023-04-18T09:14:40.700Z,0.10
2023-04-18T09:16:16.160Z,0.00
2023-04-18T09:17:53.175Z,0.03
2023-04-18T09:19:31.028Z,0.00
2023-04-18T09:21:22.973Z,0.00
2023-04-18T09:22:58.442Z,0.10
2023-04-18T09:24:32.612Z,0.00
2023-04-18T09:26:05.587Z,0.05
2023-04-18T09:27:38.882Z,0.00
2023-04-18T09:29:12.514Z,0.05
2023-04-18T09:30:46.869Z,0.00
2023-04-18T09:32:29.613Z,0.00
2023-04-18T09:34:05.722Z,0.00
2023-04-18T09:35:39.551Z,0.00
2023-04-18T09:37:14.598Z,0.10
2023-04-18T09:38:48.994Z,0.00
2023-04-18T09:40:22.754Z,0.08
2023-04-18T09:42:02.677Z,0.10
2023-04-18T09:43:35.716Z,0.00
2023-04-18T09:45:08.988Z,0.00
2023-04-18T09:46:45.248Z,0.10
2023-04-18T09:48:19.693Z,0.05
2023-04-18T09:49:53.179Z,0.10
2023-04-18T09:51:28.594Z,0.00
2023-04-18T09:53:02.466Z,0.00
2023-04-18T09:54:38.879Z,0.10
2023-04-18T09:56:28.276Z,0.10
2023-04-18T09:58:04.281Z,0.05
2023-04-18T10:00:10.825Z,0.05
2023-04-18T10:01:48.326Z,0.00
2023-04-18T10:03:26.835Z,0.10
2023-04-18T10:05:01.152Z,0.00
2023-04-18T10:06:35.525Z,0.00
2023-04-18T10:08:09.823Z,0.00
2023-04-18T10:09:45.190Z,0.10
2023-04-18T10:11:19.296Z,0.10
2023-04-18T10:12:58.324Z,0.00
2023-04-18T10:14:34.239Z,0.10
2023-04-18T10:16:07.959Z,0.00
2023-04-18T10:17:56.048Z,0.00
2023-04-18T10:19:33.545Z,0.00
2023-04-18T10:21:06.526Z,0.08
2023-04-18T10:22:39.990Z,0.10
2023-04-18T10:24:53.807Z,0.10
2023-04-18T10:26:47.298Z,0.00
2023-04-18T10:28:21.387Z,0.00
2023-04-18T10:29:54.510Z,0.10
2023-04-18T10:31:29.240Z,0.10
2023-04-18T10:33:31.148Z,0.00
2023-04-18T10:35:06.345Z,0.00
2023-04-18T10:37:05.377Z,0.00
2023-04-18T10:39:22.513Z,0.00
2023-04-18T10:41:20.157Z,0.00
2023-04-18T10:42:53.039Z,0.00
2023-04-18T10:44:27.544Z,0.03
2023-04-18T10:46:20.467Z,0.00
2023-04-18T10:48:29.768Z,0.10
2023-04-18T10:50:06.923Z,0.05
2023-04-18T10:51:40.210Z,0.00
2023-04-18T10:53:13.172Z,0.00
2023-04-18T10:55:00.873Z,0.00
2023-04-18T10:56:33.998Z,0.00
2023-04-18T10:58:07.063Z,0.00
2023-04-18T10:59:48.599Z,0.00
2023-04-18T11:01:31.779Z,0.00
2023-04-18T11:03:05.747Z,0.00
2023-04-18T11:04:39.769Z,0.00
2023-04-18T11:06:12.586Z,0.10
2023-04-18T11:07:49.326Z,0.00
2023-04-18T11:09:23.077Z,0.00
2023-04-18T11:11:04.402Z,0.00
2023-04-18T11:12:39.387Z,0.00
2023-04-18T11:14:12.667Z,0.00
2023-04-18T11:15:46.058Z,0.10
2023-04-18T11:17:30.042Z,0.00
2023-04-18T11:19:26.149Z,0.10
2023-04-18T11:21:04.110Z,0.00
2023-04-18T11:22:53.598Z,0.10
2023-04-18T11:24:27.015Z,0.00
2023-04-18T11:26:00.228Z,0.00
2023-04-18T11:27:33.661Z,0.10
2023-04-18T11:29:06.843Z,0.00
2023-04-18T11:30:41.692Z,0.00
2023-04-18T11:32:14.745Z,0.10
2023-04-18T11:33:48.129Z,0.00
2023-04-18T11:35:21.323Z,0.00
2023-04-18T11:36:54.170Z,0.00
2023-04-18T11:38:31.320Z,0.00
2023-04-18T11:40:05.939Z,0.10
2023-04-18T11:41:41.448Z,0.05
2023-04-18T11:43:26.234Z,0.10
2023-04-18T11:44:59.176Z,0.00
2023-04-18T11:46:39.629Z,0.10
2023-04-18T11:48:12.903Z,0.00
2023-04-18T11:49:45.910Z,0.00
2023-04-18T11:51:36.211Z,0.00
2023-04-18T11:53:09.261Z,0.10
2023-04-18T11:57:52.564Z,0.00
2023-04-18T11:59:26.114Z,0.00
2023-04-18T12:00:59.821Z,0.00
2023-04-18T12:02:47.027Z,0.00
2023-04-18T12:04:20.834Z,0.00
2023-04-18T12:06:03.508Z,0.00
2023-04-18T12:07:38.244Z,0.10
2023-04-18T12:09:14.704Z,0.00
2023-04-18T12:10:52.699Z,0.00
2023-04-18T12:12:25.984Z,0.10
2023-04-18T12:14:02.994Z,0.00
2023-04-18T12:15:39.723Z,0.08
2023-04-18T12:17:13.882Z,0.10
2023-04-18T12:18:49.770Z,0.10
2023-04-18T12:20:25.128Z,0.00
2023-04-18T12:22:06.900Z,0.10
2023-04-18T12:23:42.136Z,0.00
2023-04-18T12:25:25.162Z,0.00
2023-04-18T12:26:59.537Z,0.00
2023-04-18T12:28:34.057Z,0.10
2023-04-18T12:30:07.872Z,0.08
2023-04-18T12:31:41.425Z,0.00
2023-04-18T12:33:14.508Z,0.10
2023-04-18T12:34:47.412Z,0.00
2023-04-18T12:36:23.434Z,0.10
2023-04-18T12:37:58.991Z,0.10
2023-04-18T12:39:32.243Z,0.03
2023-04-18T12:42:39.116Z,0.00
2023-04-18T12:44:12.817Z,0.10
2023-04-18T12:45:46.952Z,0.10
2023-04-18T12:47:20.012Z,0.10
2023-04-18T12:48:53.060Z,0.10
2023-04-18T12:50:27.813Z,0.10
2023-04-18T12:52:00.773Z,0.10
2023-04-18T12:53:33.973Z,0.10
2023-04-18T12:55:07.908Z,0.10
2023-04-18T12:56:42.291Z,0.10
2023-04-18T12:58:18.909Z,0.08
2023-04-18T12:59:52.210Z,0.08
2023-04-18T13:01:26.108Z,0.10
2023-04-18T13:03:00.537Z,0.10
2023-04-18T13:04:34.223Z,0.10
2023-04-18T13:06:08.257Z,0.05
2023-04-18T13:07:42.913Z,0.10
2023-04-18T13:09:17.033Z,0.10
2023-04-18T13:10:50.229Z,0.10
2023-04-18T13:12:23.357Z,0.10
2023-04-18T13:15:29.844Z,0.10
2023-04-18T13:17:03.135Z,0.10
2023-04-18T13:18:36.612Z,0.10
2023-04-18T13:20:12.659Z,0.10
2023-04-18T13:21:48.438Z,0.10
2023-04-18T13:23:22.766Z,0.10
2023-04-18T13:24:55.735Z,0.10
2023-04-18T13:26:29.000Z,0.10
2023-04-18T13:28:02.291Z,0.10
2023-04-18T13:29:35.345Z,0.10
2023-04-18T13:31:08.376Z,0.10
2023-04-18T13:32:42.018Z,0.10
2023-04-18T13:34:16.399Z,0.10
2023-04-18T13:35:49.353Z,0.10
2023-04-18T13:38:55.542Z,0.10
2023-04-18T13:40:29.535Z,0.10
2023-04-18T13:42:03.604Z,0.10
2023-04-18T13:43:36.902Z,0.10
2023-04-18T13:45:10.370Z,0.10
2023-04-18T13:46:44.113Z,0.10
2023-04-18T13:48:17.391Z,0.10
2023-04-18T13:49:51.123Z,0.10
2023-04-18T13:51:24.154Z,0.10
2023-04-18T13:52:57.300Z,0.00
2023-04-18T13:54:32.263Z,0.10
2023-04-18T13:56:05.609Z,0.10
2023-04-18T13:57:38.758Z,0.10
2023-04-18T13:59:12.349Z,0.00
2023-04-18T14:00:45.817Z,0.10
2023-04-18T14:02:19.611Z,0.10
2023-04-18T14:03:53.151Z,0.10
2023-04-18T14:05:27.512Z,0.10
2023-04-18T14:07:01.594Z,0.10
2023-04-18T14:08:34.733Z,0.10
2023-04-18T14:10:08.306Z,0.10
2023-04-18T14:11:41.557Z,0.10
2023-04-18T14:13:15.182Z,0.10
2023-04-18T14:14:48.641Z,0.10
2023-04-18T14:16:22.386Z,0.10
2023-04-18T14:17:55.565Z,0.10
2023-04-18T14:19:31.760Z,0.10
2023-04-18T14:21:05.458Z,0.10
2023-04-18T14:22:38.804Z,0.10
2023-04-18T14:24:13.154Z,0.10
2023-04-18T14:25:46.063Z,0.10
2023-04-18T14:27:19.783Z,0.10
2023-04-18T14:28:53.346Z,0.10
2023-04-18T14:30:26.698Z,0.10
2023-04-18T14:31:59.586Z,0.10
2023-04-18T14:33:34.503Z,0.10
2023-04-18T14:35:09.665Z,0.10
2023-04-18T14:36:45.533Z,0.10
2023-04-18T14:38:22.611Z,0.10
2023-04-18T14:39:56.647Z,0.10
2023-04-18T14:41:30.257Z,0.15
2023-04-18T14:43:03.849Z,0.10
2023-04-18T14:44:36.932Z,0.10
2023-04-18T14:46:16.448Z,0.10
2023-04-18T14:47:52.783Z,0.10
2023-04-18T14:49:26.672Z,0.10
2023-04-18T14:51:03.591Z,0.10
2023-04-18T14:52:37.616Z,0.10
2023-04-18T14:54:11.101Z,0.10
2023-04-18T14:55:47.093Z,0.10
2023-04-18T14:57:20.210Z,0.10
2023-04-18T14:58:53.733Z,0.10
2023-04-18T15:00:27.695Z,0.10
2023-04-18T15:02:01.446Z,0.10
2023-04-18T15:03:35.588Z,0.10
2023-04-18T15:05:09.817Z,0.10
2023-04-18T15:06:43.251Z,0.10
2023-04-18T15:08:16.554Z,0.10
2023-04-18T15:09:49.550Z,0.10
2023-04-18T15:11:23.334Z,0.10
2023-04-18T15:12:56.254Z,0.10
2023-04-18T15:14:31.121Z,0.10
2023-04-18T15:16:05.234Z,0.10
2023-04-18T15:17:39.023Z,0.10
2023-04-18T15:19:13.146Z,0.10
2023-04-18T15:20:47.784Z,0.10
2023-04-18T15:22:20.679Z,0.10
2023-04-18T15:25:26.615Z,0.10
2023-04-18T15:27:00.016Z,0.17
2023-04-18T15:28:33.929Z,0.10
2023-04-18T15:30:08.663Z,0.10
2023-04-18T15:31:42.342Z,0.10
2023-04-18T15:33:16.332Z,0.10
2023-04-18T15:34:49.878Z,0.10
2023-04-18T15:36:22.884Z,0.15
2023-04-18T15:37:56.921Z,0.10
2023-04-18T15:39:30.567Z,0.10
2023-04-18T15:41:03.860Z,0.10
2023-04-18T15:44:09.664Z,0.20
2023-04-18T15:45:44.799Z,0.10
2023-04-18T15:47:17.877Z,0.10
2023-04-18T15:50:24.635Z,0.10
2023-04-18T15:51:57.721Z,0.20
2023-04-18T15:55:04.230Z,0.10
2023-04-18T15:56:37.646Z,0.10
2023-04-18T15:58:10.679Z,0.15
2023-04-18T15:59:43.767Z,0.10
2023-04-18T16:01:17.671Z,0.20
2023-04-18T16:02:50.959Z,0.10
2023-04-18T16:04:24.585Z,0.10
2023-04-18T16:05:57.807Z,0.10
2023-04-18T16:07:30.914Z,0.10
2023-04-18T16:09:05.620Z,0.15
2023-04-18T16:10:39.205Z,0.10
2023-04-18T16:12:12.337Z,0.10
2023-04-18T16:13:45.210Z,0.20
2023-04-18T16:15:18.275Z,0.20
2023-04-18T16:16:51.458Z,0.10
2023-04-18T16:18:24.760Z,0.13
2023-04-18T16:19:57.766Z,0.10
2023-04-18T16:21:30.839Z,0.10
2023-04-18T16:24:36.819Z,0.15
2023-04-18T16:26:09.603Z,0.13
2023-04-18T16:27:46.282Z,0.10
2023-04-18T16:29:19.456Z,0.20
2023-04-18T16:30:54.842Z,0.20
2023-04-18T16:32:29.163Z,0.20
2023-04-18T16:35:36.693Z,0.20
2023-04-18T16:37:09.626Z,0.13
2023-04-18T16:38:42.434Z,0.20
2023-04-18T16:41:48.693Z,0.10
2023-04-18T16:44:56.130Z,0.10
2023-04-18T16:46:32.596Z,0.20
2023-04-18T16:48:06.044Z,0.20
2023-04-18T16:49:39.206Z,0.10
2023-04-18T16:51:13.340Z,0.20
2023-04-18T16:52:46.430Z,0.13
2023-04-18T16:54:19.639Z,0.10
2023-04-18T16:55:53.440Z,0.10
2023-04-18T16:57:26.562Z,0.20
2023-04-18T16:58:59.788Z,0.20
2023-04-18T17:00:33.001Z,0.20
2023-04-18T17:02:06.549Z,0.10
2023-04-18T17:03:39.544Z,0.20
2023-04-18T17:05:12.963Z,0.20
2023-04-18T17:06:47.007Z,0.20
2023-04-18T17:08:20.163Z,0.13
2023-04-18T17:09:53.089Z,0.20
2023-04-18T17:11:26.828Z,0.15
2023-04-18T17:13:00.289Z,0.20
2023-04-18T17:14:33.417Z,0.20
2023-04-18T17:16:07.599Z,0.20
2023-04-18T17:17:41.074Z,0.20
2023-04-18T17:19:14.394Z,0.20
2023-04-18T17:20:47.757Z,0.20
2023-04-18T17:22:20.734Z,0.20
2023-04-18T17:25:26.711Z,0.20
2023-04-18T17:27:03.388Z,0.20
2023-04-18T17:28:36.737Z,0.20
2023-04-18T17:30:10.891Z,0.20
2023-04-18T17:31:44.141Z,0.10
2023-04-18T17:33:17.193Z,0.20
2023-04-18T17:36:24.220Z,0.20
2023-04-18T17:37:57.647Z,0.20
2023-04-18T17:41:05.914Z,0.20
2023-04-18T17:42:39.874Z,0.20
2023-04-18T17:44:14.060Z,0.20
2023-04-18T17:45:47.285Z,0.20
2023-04-18T17:47:20.496Z,0.20
2023-04-18T17:48:57.314Z,0.20
2023-04-18T17:50:30.602Z,0.20
2023-04-18T17:52:04.252Z,0.20
2023-04-18T17:53:37.180Z,0.20
2023-04-18T17:56:43.825Z,0.20
2023-04-18T17:58:17.360Z,0.20
2023-04-18T17:59:50.197Z,0.20
2023-04-18T18:02:57.486Z,0.20
2023-04-18T18:04:30.711Z,0.20
2023-04-18T18:06:04.017Z,0.20
2023-04-18T18:07:38.534Z,0.20
2023-04-18T18:09:13.025Z,0.20
2023-04-18T18:10:47.327Z,0.20
2023-04-18T18:12:20.289Z,0.20
2023-04-18T18:15:28.848Z,0.20
2023-04-18T18:17:01.744Z,0.20
2023-04-18T18:18:35.059Z,0.20
2023-04-18T18:20:10.962Z,0.20
2023-04-18T18:21:44.171Z,0.20
2023-04-18T18:23:17.209Z,0.10
2023-04-18T18:24:50.109Z,0.20
2023-04-18T18:26:23.437Z,0.20
2023-04-18T18:27:56.766Z,0.20
2023-04-18T18:29:29.864Z,0.20
2023-04-18T18:31:04.003Z,0.20
2023-04-18T18:32:37.427Z,0.20
2023-04-18T18:34:11.042Z,0.20
2023-04-18T18:35:43.945Z,0.20
2023-04-18T18:38:49.768Z,0.20
2023-04-18T18:40:23.297Z,0.20
2023-04-18T18:41:58.469Z,0.20
2023-04-18T18:43:32.542Z,0.20
2023-04-18T18:45:08.474Z,0.20
2023-04-18T18:46:44.596Z,0.20
2023-04-18T18:48:17.533Z,0.20
2023-04-18T18:51:24.100Z,0.20
2023-04-18T18:52:57.607Z,0.20
2023-04-18T18:54:32.316Z,0.20
2023-04-18T18:56:05.544Z,0.20
2023-04-18T18:57:38.670Z,0.20
2023-04-18T18:59:15.209Z,0.20
2023-04-18T19:00:49.124Z,0.20
2023-04-18T19:02:22.323Z,0.20
2023-04-18T19:03:55.640Z,0.20
2023-04-18T19:05:28.854Z,0.20
2023-04-18T19:07:01.682Z,0.20
2023-04-18T19:08:35.821Z,0.20
2023-04-18T19:10:11.072Z,0.20
2023-04-18T19:11:43.963Z,0.20
2023-04-18T19:14:50.397Z,0.20
2023-04-18T19:16:23.632Z,0.20
2023-04-18T19:17:57.022Z,0.20
2023-04-18T19:19:30.029Z,0.20
2023-04-18T19:22:36.568Z,0.20
2023-04-18T19:24:09.690Z,0.20
2023-04-18T19:25:42.734Z,0.20
2023-04-18T19:27:18.855Z,0.20
2023-04-18T19:28:54.829Z,0.20
2023-04-18T19:30:27.787Z,0.20
2023-04-18T19:32:00.895Z,0.20
2023-04-18T19:35:07.313Z,0.20
2023-04-18T19:36:40.433Z,0.20
2023-04-18T19:38:13.257Z,0.20
2023-04-18T19:41:18.840Z,0.20
2023-04-18T19:44:24.418Z,0.20
2023-04-18T19:45:57.373Z,0.28
2023-04-18T19:47:34.314Z,0.20
2023-04-18T19:49:07.619Z,0.20
2023-04-18T19:50:41.263Z,0.20
2023-04-18T19:52:14.200Z,0.20
2023-04-18T19:55:20.061Z,0.20
2023-04-18T19:56:53.325Z,0.20
2023-04-18T19:58:46.603Z,0.25
2023-04-18T20:00:20.570Z,0.28
2023-04-18T20:01:53.595Z,0.20
2023-04-18T20:03:26.753Z,0.30
2023-04-18T20:04:59.854Z,0.20
2023-04-18T20:06:33.733Z,0.20
2023-04-18T20:08:07.064Z,0.20
2023-04-18T20:09:39.921Z,0.20
2023-04-18T20:12:49.451Z,0.22
2023-04-18T20:14:23.042Z,0.20
2023-04-18T20:17:34.895Z,0.20
2023-04-18T20:19:08.371Z,0.20
2023-04-18T20:20:42.180Z,0.25
2023-04-18T20:22:15.899Z,0.20
2023-04-18T20:23:48.836Z,0.20
2023-04-18T20:26:55.321Z,0.30
2023-04-18T20:28:28.198Z,0.20
2023-04-18T20:30:00.953Z,0.20
2023-04-18T20:31:34.183Z,0.20
2023-04-18T20:33:07.554Z,0.20
2023-04-18T20:34:40.728Z,0.22
2023-04-18T20:36:14.374Z,0.20
2023-04-18T20:37:47.255Z,0.20
2023-04-18T20:39:21.554Z,0.20
2023-04-18T20:40:54.936Z,0.20
2023-04-18T20:42:27.749Z,0.30
2023-04-18T20:45:43.265Z,0.30
2023-04-18T20:47:16.247Z,0.20
2023-04-18T20:50:21.801Z,0.30
2023-04-18T20:53:29.193Z,0.30
2023-04-18T20:55:02.134Z,0.30
2023-04-18T20:56:37.248Z,0.30
2023-04-18T20:58:10.296Z,0.20
2023-04-18T20:59:43.304Z,0.20
2023-04-18T21:01:16.507Z,0.20
2023-04-18T21:02:49.928Z,0.20
2023-04-18T21:04:23.673Z,0.20
2023-04-18T21:05:56.686Z,0.20
2023-04-18T21:09:02.860Z,0.20
2023-04-18T21:10:36.308Z,0.20
2023-04-18T21:12:09.154Z,0.25
2023-04-18T21:15:14.820Z,0.20
2023-04-18T21:18:20.471Z,0.20
2023-04-18T21:19:53.332Z,0.30
2023-04-18T21:21:26.207Z,0.20
2023-04-18T21:24:32.378Z,0.25
2023-04-18T21:26:05.653Z,0.20
2023-04-18T21:27:38.708Z,0.20
2023-04-18T21:29:11.759Z,0.20
2023-04-18T21:32:17.286Z,0.30
2023-04-18T21:33:55.135Z,0.30
2023-04-18T21:35:30.113Z,0.20
2023-04-18T21:37:03.482Z,0.20
2023-04-18T21:38:36.370Z,0.20
2023-04-18T21:41:42.627Z,0.20
2023-04-18T21:43:15.771Z,0.20
2023-04-18T21:44:48.524Z,0.20
2023-04-18T21:46:21.675Z,0.30
2023-04-18T21:47:54.900Z,0.20
2023-04-18T21:49:27.743Z,0.28
2023-04-18T21:52:33.354Z,0.30
2023-04-18T21:54:08.041Z,0.28
2023-04-18T21:55:41.508Z,0.20
2023-04-18T21:57:14.759Z,0.30
2023-04-18T21:58:47.909Z,0.20
2023-04-18T22:00:20.938Z,0.20
2023-04-18T22:01:53.819Z,0.22
2023-04-18T22:03:31.876Z,0.20
2023-04-18T22:05:05.281Z,0.20
2023-04-18T22:06:38.376Z,0.20
2023-04-18T22:08:11.251Z,0.30
2023-04-18T22:09:45.013Z,0.30
2023-04-18T22:11:18.974Z,0.20
2023-04-18T22:12:54.526Z,0.20
2023-04-18T22:14:28.554Z,0.30
2023-04-18T22:16:05.340Z,0.20
2023-04-18T22:17:38.510Z,0.20
2023-04-18T22:20:45.273Z,0.20
2023-04-18T22:22:18.289Z,0.20
2023-04-18T22:25:24.474Z,0.20
2023-04-18T22:26:57.719Z,0.20
2023-04-18T22:28:30.605Z,0.25
2023-04-18T22:31:36.893Z,0.20
2023-04-18T22:33:09.700Z,0.20
2023-04-18T22:36:15.430Z,0.20
2023-04-18T22:37:48.765Z,0.28
2023-04-18T22:39:22.015Z,0.20
2023-04-18T22:40:55.150Z,0.28
2023-04-18T22:44:04.155Z,0.30
2023-04-18T22:45:37.584Z,0.22
2023-04-18T22:47:10.668Z,0.30